sensor_id;sensor_type;location;lat;lon;timestamp;P1;durP1;ratioP1;P2;durP2;ratioP2
25567;SDS011;13455;51.480;7.594;2022-07-21T00:00:46;8.97;;;5.87;;
25567;SDS011;13455;51.480;7.594;2022-07-21T00:03:12;8.73;;;5.73;;
25567;SDS011;13455;51.480;7.594;2022-07-21T00:05:38;10.30;;;6.10;;
25567;SDS011;13455;51.480;7.594;2022-07-21T00:08:04;7.40;;;5.80;;
25567;SDS011;13455;51.480;7.594;2022-07-21T00:10:30;8.60;;;6.00;;
25567;SDS011;13455;51.480;7.594;2022-07-21T00:12:56;9.38;;;6.60;;
25567;SDS011;13455;51.480;7.594;2022-07-21T00:15:23;8.18;;;6.60;;
25567;SDS011;13455;51.480;7.594;2022-07-21T00:17:50;8.73;;;6.68;;
25567;SDS011;13455;51.480;7.594;2022-07-21T00:20:16;10.77;;;6.80;;
25567;SDS011;13455;51.480;7.594;2022-07-21T00:22:43;9.40;;;6.93;;
25567;SDS011;13455;51.480;7.594;2022-07-21T00:25:10;9.38;;;6.85;;
25567;SDS011;13455;51.480;7.594;2022-07-21T00:27:36;8.73;;;7.45;;
25567;SDS011;13455;51.480;7.594;2022-07-21T00:30:03;9.02;;;7.57;;
25567;SDS011;13455;51.480;7.594;2022-07-21T00:32:29;9.68;;;7.80;;
25567;SDS011;13455;51.480;7.594;2022-07-21T00:34:55;9.88;;;7.90;;
25567;SDS011;13455;51.480;7.594;2022-07-21T00:37:21;10.38;;;8.40;;
25567;SDS011;13455;51.480;7.594;2022-07-21T00:39:49;14.20;;;8.63;;
25567;SDS011;13455;51.480;7.594;2022-07-21T00:42:25;11.00;;;9.10;;
25567;SDS011;13455;51.480;7.594;2022-07-21T00:44:51;12.90;;;9.80;;
25567;SDS011;13455;51.480;7.594;2022-07-21T00:47:20;13.27;;;10.30;;
25567;SDS011;13455;51.480;7.594;2022-07-21T00:49:47;12.70;;;10.43;;
25567;SDS011;13455;51.480;7.594;2022-07-21T00:52:13;15.43;;;11.60;;
25567;SDS011;13455;51.480;7.594;2022-07-21T00:54:39;14.50;;;11.05;;
25567;SDS011;13455;51.480;7.594;2022-07-21T00:57:04;14.82;;;12.15;;
25567;SDS011;13455;51.480;7.594;2022-07-21T00:59:31;16.23;;;12.10;;
25567;SDS011;13455;51.480;7.594;2022-07-21T01:01:57;15.93;;;12.68;;
25567;SDS011;13455;51.480;7.594;2022-07-21T01:04:23;16.67;;;13.10;;
25567;SDS011;13455;51.480;7.594;2022-07-21T01:06:49;18.17;;;12.70;;
25567;SDS011;13455;51.480;7.594;2022-07-21T01:09:15;18.48;;;14.07;;
25567;SDS011;13455;51.480;7.594;2022-07-21T01:11:41;16.63;;;14.07;;
25567;SDS011;13455;51.480;7.594;2022-07-21T01:14:07;17.25;;;14.45;;
25567;SDS011;13455;51.480;7.594;2022-07-21T01:16:33;17.00;;;14.55;;
25567;SDS011;13455;51.480;7.594;2022-07-21T01:18:59;19.67;;;14.60;;
25567;SDS011;13455;51.480;7.594;2022-07-21T01:23:54;18.52;;;14.68;;
25567;SDS011;13455;51.480;7.594;2022-07-21T01:26:20;18.08;;;13.75;;
25567;SDS011;13455;51.480;7.594;2022-07-21T01:28:46;13.63;;;10.95;;
25567;SDS011;13455;51.480;7.594;2022-07-21T01:31:12;13.13;;;9.80;;
25567;SDS011;13455;51.480;7.594;2022-07-21T01:33:39;12.20;;;9.50;;
25567;SDS011;13455;51.480;7.594;2022-07-21T01:36:05;10.87;;;9.60;;
25567;SDS011;13455;51.480;7.594;2022-07-21T01:38:31;12.57;;;9.85;;
25567;SDS011;13455;51.480;7.594;2022-07-21T01:41:16;11.57;;;10.27;;
25567;SDS011;13455;51.480;7.594;2022-07-21T01:43:54;13.18;;;10.48;;
25567;SDS011;13455;51.480;7.594;2022-07-21T01:46:20;13.73;;;10.48;;
25567;SDS011;13455;51.480;7.594;2022-07-21T01:48:47;14.23;;;11.15;;
25567;SDS011;13455;51.480;7.594;2022-07-21T01:51:13;14.35;;;10.95;;
25567;SDS011;13455;51.480;7.594;2022-07-21T01:53:39;14.88;;;11.05;;
25567;SDS011;13455;51.480;7.594;2022-07-21T01:56:06;14.25;;;11.23;;
25567;SDS011;13455;51.480;7.594;2022-07-21T01:58:32;13.17;;;10.70;;
25567;SDS011;13455;51.480;7.594;2022-07-21T02:00:58;14.80;;;11.20;;
25567;SDS011;13455;51.480;7.594;2022-07-21T02:03:25;13.15;;;11.23;;
25567;SDS011;13455;51.480;7.594;2022-07-21T02:05:51;13.53;;;11.37;;
25567;SDS011;13455;51.480;7.594;2022-07-21T02:08:17;15.30;;;11.73;;
25567;SDS011;13455;51.480;7.594;2022-07-21T02:10:43;13.73;;;11.10;;
25567;SDS011;13455;51.480;7.594;2022-07-21T02:13:09;13.20;;;10.75;;
25567;SDS011;13455;51.480;7.594;2022-07-21T02:15:35;13.38;;;10.80;;
25567;SDS011;13455;51.480;7.594;2022-07-21T02:18:01;12.48;;;10.20;;
25567;SDS011;13455;51.480;7.594;2022-07-21T02:20:27;11.20;;;9.23;;
25567;SDS011;13455;51.480;7.594;2022-07-21T02:22:53;10.10;;;8.10;;
25567;SDS011;13455;51.480;7.594;2022-07-21T02:25:19;11.10;;;7.65;;
25567;SDS011;13455;51.480;7.594;2022-07-21T02:27:45;9.83;;;7.40;;
25567;SDS011;13455;51.480;7.594;2022-07-21T02:30:12;9.65;;;7.70;;
25567;SDS011;13455;51.480;7.594;2022-07-21T02:32:38;11.10;;;8.20;;
25567;SDS011;13455;51.480;7.594;2022-07-21T02:35:05;10.07;;;8.02;;
25567;SDS011;13455;51.480;7.594;2022-07-21T02:37:31;12.37;;;8.30;;
25567;SDS011;13455;51.480;7.594;2022-07-21T02:39:57;11.93;;;7.93;;
25567;SDS011;13455;51.480;7.594;2022-07-21T02:42:23;10.90;;;7.53;;
25567;SDS011;13455;51.480;7.594;2022-07-21T02:44:49;10.10;;;7.20;;
25567;SDS011;13455;51.480;7.594;2022-07-21T02:47:15;7.40;;;6.43;;
25567;SDS011;13455;51.480;7.594;2022-07-21T02:49:41;7.50;;;5.43;;
25567;SDS011;13455;51.480;7.594;2022-07-21T02:52:07;8.27;;;5.22;;
25567;SDS011;13455;51.480;7.594;2022-07-21T02:54:33;7.60;;;4.80;;
25567;SDS011;13455;51.480;7.594;2022-07-21T02:56:59;6.70;;;4.75;;
25567;SDS011;13455;51.480;7.594;2022-07-21T02:59:25;6.72;;;4.78;;
25567;SDS011;13455;51.480;7.594;2022-07-21T03:01:51;6.63;;;5.07;;
25567;SDS011;13455;51.480;7.594;2022-07-21T03:04:17;6.82;;;5.07;;
25567;SDS011;13455;51.480;7.594;2022-07-21T03:06:43;7.53;;;4.60;;
25567;SDS011;13455;51.480;7.594;2022-07-21T03:09:09;6.27;;;4.77;;
25567;SDS011;13455;51.480;7.594;2022-07-21T03:11:35;7.13;;;4.85;;
25567;SDS011;13455;51.480;7.594;2022-07-21T03:14:01;7.10;;;4.60;;
25567;SDS011;13455;51.480;7.594;2022-07-21T03:16:27;6.47;;;5.00;;
25567;SDS011;13455;51.480;7.594;2022-07-21T03:18:53;7.60;;;5.40;;
25567;SDS011;13455;51.480;7.594;2022-07-21T03:21:19;8.27;;;5.95;;
25567;SDS011;13455;51.480;7.594;2022-07-21T03:23:45;8.77;;;6.00;;
25567;SDS011;13455;51.480;7.594;2022-07-21T03:26:12;8.32;;;6.53;;
25567;SDS011;13455;51.480;7.594;2022-07-21T03:28:38;7.68;;;6.55;;
25567;SDS011;13455;51.480;7.594;2022-07-21T03:31:05;9.90;;;6.80;;
25567;SDS011;13455;51.480;7.594;2022-07-21T03:33:31;9.07;;;6.50;;
25567;SDS011;13455;51.480;7.594;2022-07-21T03:35:57;8.48;;;6.45;;
25567;SDS011;13455;51.480;7.594;2022-07-21T03:38:23;9.73;;;7.03;;
25567;SDS011;13455;51.480;7.594;2022-07-21T03:40:49;8.57;;;6.70;;
25567;SDS011;13455;51.480;7.594;2022-07-21T03:43:15;10.20;;;7.18;;
25567;SDS011;13455;51.480;7.594;2022-07-21T03:45:42;11.55;;;8.02;;
25567;SDS011;13455;51.480;7.594;2022-07-21T03:48:08;11.38;;;8.73;;
25567;SDS011;13455;51.480;7.594;2022-07-21T03:50:35;12.85;;;9.10;;
25567;SDS011;13455;51.480;7.594;2022-07-21T03:53:01;13.23;;;9.45;;
25567;SDS011;13455;51.480;7.594;2022-07-21T03:55:28;12.55;;;9.10;;
25567;SDS011;13455;51.480;7.594;2022-07-21T03:57:58;10.80;;;8.63;;
25567;SDS011;13455;51.480;7.594;2022-07-21T04:02:53;11.38;;;9.13;;
25567;SDS011;13455;51.480;7.594;2022-07-21T04:05:19;11.10;;;9.13;;
25567;SDS011;13455;51.480;7.594;2022-07-21T04:07:46;11.80;;;8.75;;
25567;SDS011;13455;51.480;7.594;2022-07-21T04:10:13;9.13;;;8.00;;
25567;SDS011;13455;51.480;7.594;2022-07-21T04:12:40;9.93;;;8.00;;
25567;SDS011;13455;51.480;7.594;2022-07-21T04:15:07;9.55;;;7.80;;
25567;SDS011;13455;51.480;7.594;2022-07-21T04:17:33;8.85;;;7.65;;
25567;SDS011;13455;51.480;7.594;2022-07-21T04:19:59;9.95;;;7.50;;
25567;SDS011;13455;51.480;7.594;2022-07-21T04:22:26;9.00;;;7.53;;
25567;SDS011;13455;51.480;7.594;2022-07-21T04:24:52;10.47;;;7.43;;
25567;SDS011;13455;51.480;7.594;2022-07-21T04:27:18;9.40;;;7.03;;
25567;SDS011;13455;51.480;7.594;2022-07-21T04:29:44;9.45;;;7.10;;
25567;SDS011;13455;51.480;7.594;2022-07-21T04:32:10;12.18;;;7.90;;
25567;SDS011;13455;51.480;7.594;2022-07-21T04:34:36;10.25;;;7.03;;
25567;SDS011;13455;51.480;7.594;2022-07-21T04:37:02;9.77;;;7.30;;
25567;SDS011;13455;51.480;7.594;2022-07-21T04:39:28;9.63;;;7.00;;
25567;SDS011;13455;51.480;7.594;2022-07-21T04:41:54;11.27;;;7.30;;
25567;SDS011;13455;51.480;7.594;2022-07-21T04:44:20;7.93;;;6.85;;
25567;SDS011;13455;51.480;7.594;2022-07-21T04:46:46;9.43;;;6.97;;
25567;SDS011;13455;51.480;7.594;2022-07-21T04:49:12;10.20;;;6.63;;
25567;SDS011;13455;51.480;7.594;2022-07-21T04:51:38;10.93;;;6.72;;
25567;SDS011;13455;51.480;7.594;2022-07-21T04:54:05;9.23;;;7.10;;
25567;SDS011;13455;51.480;7.594;2022-07-21T04:56:31;7.63;;;6.53;;
25567;SDS011;13455;51.480;7.594;2022-07-21T04:58:59;8.55;;;6.32;;
25567;SDS011;13455;51.480;7.594;2022-07-21T05:01:25;9.35;;;6.50;;
25567;SDS011;13455;51.480;7.594;2022-07-21T05:03:51;7.63;;;6.40;;
25567;SDS011;13455;51.480;7.594;2022-07-21T05:06:17;7.68;;;6.45;;
25567;SDS011;13455;51.480;7.594;2022-07-21T05:08:43;10.13;;;6.60;;
25567;SDS011;13455;51.480;7.594;2022-07-21T05:11:09;10.57;;;7.07;;
25567;SDS011;13455;51.480;7.594;2022-07-21T05:13:35;9.13;;;6.90;;
25567;SDS011;13455;51.480;7.594;2022-07-21T05:16:01;9.77;;;7.28;;
25567;SDS011;13455;51.480;7.594;2022-07-21T05:18:27;8.80;;;7.40;;
25567;SDS011;13455;51.480;7.594;2022-07-21T05:20:53;10.95;;;7.57;;
25567;SDS011;13455;51.480;7.594;2022-07-21T05:23:19;9.02;;;7.50;;
25567;SDS011;13455;51.480;7.594;2022-07-21T05:25:45;8.90;;;7.50;;
25567;SDS011;13455;51.480;7.594;2022-07-21T05:28:11;11.30;;;8.07;;
25567;SDS011;13455;51.480;7.594;2022-07-21T05:30:37;11.10;;;8.40;;
25567;SDS011;13455;51.480;7.594;2022-07-21T05:33:03;12.85;;;9.15;;
25567;SDS011;13455;51.480;7.594;2022-07-21T05:35:29;11.55;;;9.00;;
25567;SDS011;13455;51.480;7.594;2022-07-21T05:37:56;11.15;;;9.13;;
25567;SDS011;13455;51.480;7.594;2022-07-21T05:40:22;11.98;;;9.55;;
25567;SDS011;13455;51.480;7.594;2022-07-21T05:42:48;12.45;;;10.27;;
25567;SDS011;13455;51.480;7.594;2022-07-21T05:45:14;14.23;;;11.10;;
25567;SDS011;13455;51.480;7.594;2022-07-21T05:47:40;14.88;;;11.60;;
25567;SDS011;13455;51.480;7.594;2022-07-21T05:50:07;13.93;;;11.85;;
25567;SDS011;13455;51.480;7.594;2022-07-21T05:52:33;15.00;;;12.68;;
25567;SDS011;13455;51.480;7.594;2022-07-21T05:54:59;15.23;;;12.40;;
25567;SDS011;13455;51.480;7.594;2022-07-21T05:57:25;15.63;;;12.70;;
25567;SDS011;13455;51.480;7.594;2022-07-21T05:59:51;15.50;;;13.25;;
25567;SDS011;13455;51.480;7.594;2022-07-21T06:02:17;15.52;;;12.98;;
25567;SDS011;13455;51.480;7.594;2022-07-21T06:04:43;15.77;;;13.20;;
25567;SDS011;13455;51.480;7.594;2022-07-21T06:07:10;16.40;;;13.50;;
25567;SDS011;13455;51.480;7.594;2022-07-21T06:09:36;15.55;;;13.90;;
25567;SDS011;13455;51.480;7.594;2022-07-21T06:12:02;16.88;;;13.95;;
25567;SDS011;13455;51.480;7.594;2022-07-21T06:14:28;17.27;;;13.68;;
25567;SDS011;13455;51.480;7.594;2022-07-21T06:16:54;16.02;;;13.05;;
25567;SDS011;13455;51.480;7.594;2022-07-21T06:19:20;15.50;;;12.48;;
25567;SDS011;13455;51.480;7.594;2022-07-21T06:21:46;15.98;;;13.07;;
25567;SDS011;13455;51.480;7.594;2022-07-21T06:24:12;15.00;;;12.65;;
25567;SDS011;13455;51.480;7.594;2022-07-21T06:26:38;13.50;;;12.03;;
25567;SDS011;13455;51.480;7.594;2022-07-21T06:29:05;13.98;;;12.35;;
25567;SDS011;13455;51.480;7.594;2022-07-21T06:31:31;13.90;;;12.50;;
25567;SDS011;13455;51.480;7.594;2022-07-21T06:33:57;14.35;;;12.38;;
25567;SDS011;13455;51.480;7.594;2022-07-21T06:36:23;14.10;;;12.60;;
25567;SDS011;13455;51.480;7.594;2022-07-21T06:38:49;14.68;;;13.18;;
25567;SDS011;13455;51.480;7.594;2022-07-21T06:41:15;15.93;;;13.32;;
25567;SDS011;13455;51.480;7.594;2022-07-21T06:43:41;14.15;;;12.65;;
25567;SDS011;13455;51.480;7.594;2022-07-21T06:46:07;15.13;;;12.60;;
25567;SDS011;13455;51.480;7.594;2022-07-21T06:48:33;14.25;;;12.23;;
25567;SDS011;13455;51.480;7.594;2022-07-21T06:50:58;14.10;;;12.48;;
25567;SDS011;13455;51.480;7.594;2022-07-21T06:53:25;13.77;;;12.25;;
25567;SDS011;13455;51.480;7.594;2022-07-21T06:55:51;13.32;;;11.88;;
25567;SDS011;13455;51.480;7.594;2022-07-21T06:58:19;14.73;;;11.48;;
25567;SDS011;13455;51.480;7.594;2022-07-21T07:00:47;12.93;;;11.23;;
25567;SDS011;13455;51.480;7.594;2022-07-21T07:03:14;12.52;;;11.15;;
25567;SDS011;13455;51.480;7.594;2022-07-21T07:05:41;12.77;;;10.90;;
25567;SDS011;13455;51.480;7.594;2022-07-21T07:08:08;11.85;;;10.50;;
25567;SDS011;13455;51.480;7.594;2022-07-21T07:10:33;14.07;;;10.43;;
25567;SDS011;13455;51.480;7.594;2022-07-21T07:12:59;12.00;;;10.10;;
25567;SDS011;13455;51.480;7.594;2022-07-21T07:15:26;10.60;;;9.43;;
25567;SDS011;13455;51.480;7.594;2022-07-21T07:17:52;12.32;;;9.82;;
25567;SDS011;13455;51.480;7.594;2022-07-21T07:20:18;13.52;;;9.98;;
25567;SDS011;13455;51.480;7.594;2022-07-21T07:22:44;11.85;;;9.93;;
25567;SDS011;13455;51.480;7.594;2022-07-21T07:25:11;11.35;;;10.13;;
25567;SDS011;13455;51.480;7.594;2022-07-21T07:27:37;11.57;;;10.10;;
25567;SDS011;13455;51.480;7.594;2022-07-21T07:30:03;11.60;;;10.40;;
25567;SDS011;13455;51.480;7.594;2022-07-21T07:32:29;12.60;;;10.45;;
25567;SDS011;13455;51.480;7.594;2022-07-21T07:34:55;11.57;;;10.43;;
25567;SDS011;13455;51.480;7.594;2022-07-21T07:37:21;11.35;;;10.10;;
25567;SDS011;13455;51.480;7.594;2022-07-21T07:39:47;11.07;;;9.90;;
25567;SDS011;13455;51.480;7.594;2022-07-21T07:42:13;12.10;;;9.73;;
25567;SDS011;13455;51.480;7.594;2022-07-21T07:44:38;11.65;;;9.68;;
25567;SDS011;13455;51.480;7.594;2022-07-21T07:47:04;11.40;;;9.43;;
25567;SDS011;13455;51.480;7.594;2022-07-21T07:49:30;11.07;;;9.07;;
25567;SDS011;13455;51.480;7.594;2022-07-21T07:51:57;11.30;;;8.60;;
25567;SDS011;13455;51.480;7.594;2022-07-21T07:54:23;10.10;;;8.02;;
25567;SDS011;13455;51.480;7.594;2022-07-21T07:56:49;10.50;;;8.30;;
25567;SDS011;13455;51.480;7.594;2022-07-21T07:59:15;10.90;;;8.02;;
25567;SDS011;13455;51.480;7.594;2022-07-21T08:01:40;10.20;;;8.23;;
25567;SDS011;13455;51.480;7.594;2022-07-21T08:04:06;8.70;;;7.80;;
25567;SDS011;13455;51.480;7.594;2022-07-21T08:06:31;10.98;;;8.00;;
25567;SDS011;13455;51.480;7.594;2022-07-21T08:08:57;9.73;;;7.70;;
25567;SDS011;13455;51.480;7.594;2022-07-21T08:11:24;8.33;;;7.27;;
25567;SDS011;13455;51.480;7.594;2022-07-21T08:13:50;8.90;;;7.60;;
25567;SDS011;13455;51.480;7.594;2022-07-21T08:16:16;8.30;;;7.38;;
25567;SDS011;13455;51.480;7.594;2022-07-21T08:18:42;9.48;;;7.40;;
25567;SDS011;13455;51.480;7.594;2022-07-21T08:21:09;9.90;;;7.47;;
25567;SDS011;13455;51.480;7.594;2022-07-21T08:23:35;9.20;;;7.18;;
25567;SDS011;13455;51.480;7.594;2022-07-21T08:26:01;8.63;;;7.10;;
25567;SDS011;13455;51.480;7.594;2022-07-21T08:28:26;8.60;;;7.07;;
25567;SDS011;13455;51.480;7.594;2022-07-21T08:30:52;8.40;;;7.38;;
25567;SDS011;13455;51.480;7.594;2022-07-21T08:33:18;10.17;;;7.60;;
25567;SDS011;13455;51.480;7.594;2022-07-21T08:35:44;9.50;;;7.10;;
25567;SDS011;13455;51.480;7.594;2022-07-21T08:38:10;9.35;;;7.15;;
25567;SDS011;13455;51.480;7.594;2022-07-21T08:40:37;8.40;;;7.00;;
25567;SDS011;13455;51.480;7.594;2022-07-21T08:43:05;7.53;;;6.55;;
25567;SDS011;13455;51.480;7.594;2022-07-21T08:45:33;7.10;;;6.38;;
25567;SDS011;13455;51.480;7.594;2022-07-21T08:48:00;7.18;;;6.18;;
25567;SDS011;13455;51.480;7.594;2022-07-21T08:50:30;7.13;;;5.88;;
25567;SDS011;13455;51.480;7.594;2022-07-21T08:52:56;9.63;;;5.80;;
25567;SDS011;13455;51.480;7.594;2022-07-21T08:55:22;8.65;;;5.50;;
25567;SDS011;13455;51.480;7.594;2022-07-21T08:57:49;7.77;;;5.90;;
25567;SDS011;13455;51.480;7.594;2022-07-21T09:00:15;9.85;;;5.80;;
25567;SDS011;13455;51.480;7.594;2022-07-21T09:02:41;6.80;;;5.57;;
25567;SDS011;13455;51.480;7.594;2022-07-21T09:05:07;7.17;;;5.57;;
25567;SDS011;13455;51.480;7.594;2022-07-21T09:07:50;7.93;;;5.15;;
25567;SDS011;13455;51.480;7.594;2022-07-21T09:10:20;6.23;;;4.90;;
25567;SDS011;13455;51.480;7.594;2022-07-21T09:12:50;8.07;;;5.10;;
25567;SDS011;13455;51.480;7.594;2022-07-21T09:15:17;6.80;;;4.82;;
25567;SDS011;13455;51.480;7.594;2022-07-21T09:17:44;7.50;;;4.82;;
25567;SDS011;13455;51.480;7.594;2022-07-21T09:20:31;6.50;;;4.50;;
25567;SDS011;13455;51.480;7.594;2022-07-21T09:23:09;7.68;;;5.10;;
25567;SDS011;13455;51.480;7.594;2022-07-21T09:38:35;6.00;;;4.15;;
25567;SDS011;13455;51.480;7.594;2022-07-21T09:41:30;10.32;;;4.10;;
25567;SDS011;13455;51.480;7.594;2022-07-21T09:43:56;4.97;;;3.90;;
25567;SDS011;13455;51.480;7.594;2022-07-21T09:46:23;5.90;;;3.70;;
25567;SDS011;13455;51.480;7.594;2022-07-21T09:48:51;7.03;;;3.90;;
25567;SDS011;13455;51.480;7.594;2022-07-21T09:51:30;5.10;;;3.50;;
25567;SDS011;13455;51.480;7.594;2022-07-21T09:56:33;6.78;;;3.83;;
25567;SDS011;13455;51.480;7.594;2022-07-21T09:58:59;6.63;;;3.75;;
25567;SDS011;13455;51.480;7.594;2022-07-21T10:01:26;6.43;;;3.80;;
25567;SDS011;13455;51.480;7.594;2022-07-21T10:03:52;5.95;;;3.63;;
25567;SDS011;13455;51.480;7.594;2022-07-21T10:06:20;7.65;;;3.72;;
25567;SDS011;13455;51.480;7.594;2022-07-21T10:08:48;5.30;;;3.80;;
25567;SDS011;13455;51.480;7.594;2022-07-21T10:11:14;5.35;;;3.80;;
25567;SDS011;13455;51.480;7.594;2022-07-21T10:13:41;5.60;;;3.85;;
25567;SDS011;13455;51.480;7.594;2022-07-21T10:16:08;5.40;;;3.67;;
25567;SDS011;13455;51.480;7.594;2022-07-21T10:18:37;5.93;;;3.70;;
25567;SDS011;13455;51.480;7.594;2022-07-21T10:21:52;5.18;;;3.55;;
25567;SDS011;13455;51.480;7.594;2022-07-21T10:23:51;5.22;;;3.90;;
25567;SDS011;13455;51.480;7.594;2022-07-21T10:26:19;5.37;;;3.87;;
25567;SDS011;13455;51.480;7.594;2022-07-21T10:28:45;5.88;;;3.80;;
25567;SDS011;13455;51.480;7.594;2022-07-21T10:31:15;6.00;;;3.70;;
25567;SDS011;13455;51.480;7.594;2022-07-21T10:50:00;5.60;;;4.65;;
25567;SDS011;13455;51.480;7.594;2022-07-21T10:57:41;6.85;;;5.05;;
25567;SDS011;13455;51.480;7.594;2022-07-21T11:00:27;7.10;;;4.82;;
25567;SDS011;13455;51.480;7.594;2022-07-21T11:02:58;7.80;;;5.10;;
25567;SDS011;13455;51.480;7.594;2022-07-21T11:05:25;7.30;;;5.30;;
25567;SDS011;13455;51.480;7.594;2022-07-21T11:10:43;7.90;;;5.77;;
25567;SDS011;13455;51.480;7.594;2022-07-21T11:13:10;8.85;;;5.80;;
25567;SDS011;13455;51.480;7.594;2022-07-21T11:15:43;6.38;;;5.55;;
25567;SDS011;13455;51.480;7.594;2022-07-21T11:18:10;9.25;;;5.85;;
25567;SDS011;13455;51.480;7.594;2022-07-21T11:20:36;7.43;;;5.82;;
25567;SDS011;13455;51.480;7.594;2022-07-21T11:23:02;9.70;;;5.90;;
25567;SDS011;13455;51.480;7.594;2022-07-21T11:25:28;8.60;;;6.10;;
25567;SDS011;13455;51.480;7.594;2022-07-21T11:27:54;9.65;;;6.38;;
25567;SDS011;13455;51.480;7.594;2022-07-21T11:30:21;8.98;;;6.13;;
25567;SDS011;13455;51.480;7.594;2022-07-21T11:32:47;8.38;;;6.30;;
25567;SDS011;13455;51.480;7.594;2022-07-21T11:35:13;8.53;;;5.93;;
25567;SDS011;13455;51.480;7.594;2022-07-21T11:37:43;10.50;;;5.73;;
25567;SDS011;13455;51.480;7.594;2022-07-21T11:42:39;8.43;;;5.45;;
25567;SDS011;13455;51.480;7.594;2022-07-21T11:45:05;6.90;;;5.60;;
25567;SDS011;13455;51.480;7.594;2022-07-21T11:47:32;8.63;;;5.53;;
25567;SDS011;13455;51.480;7.594;2022-07-21T11:49:59;9.15;;;5.47;;
25567;SDS011;13455;51.480;7.594;2022-07-21T11:52:27;8.35;;;5.72;;
25567;SDS011;13455;51.480;7.594;2022-07-21T11:54:54;8.48;;;5.80;;
25567;SDS011;13455;51.480;7.594;2022-07-21T11:57:20;9.10;;;5.65;;
25567;SDS011;13455;51.480;7.594;2022-07-21T11:59:47;9.05;;;5.93;;
25567;SDS011;13455;51.480;7.594;2022-07-21T12:02:14;9.40;;;6.10;;
25567;SDS011;13455;51.480;7.594;2022-07-21T12:04:48;9.65;;;6.00;;
25567;SDS011;13455;51.480;7.594;2022-07-21T12:09:42;8.00;;;5.90;;
25567;SDS011;13455;51.480;7.594;2022-07-21T12:12:08;8.77;;;5.90;;
25567;SDS011;13455;51.480;7.594;2022-07-21T12:14:45;10.68;;;6.40;;
25567;SDS011;13455;51.480;7.594;2022-07-21T12:17:12;7.32;;;5.90;;
25567;SDS011;13455;51.480;7.594;2022-07-21T12:19:38;7.45;;;5.93;;
25567;SDS011;13455;51.480;7.594;2022-07-21T12:22:04;8.17;;;6.33;;
25567;SDS011;13455;51.480;7.594;2022-07-21T12:27:16;10.38;;;7.20;;
25567;SDS011;13455;51.480;7.594;2022-07-21T12:29:44;10.50;;;7.10;;
25567;SDS011;13455;51.480;7.594;2022-07-21T12:32:11;8.88;;;6.75;;
25567;SDS011;13455;51.480;7.594;2022-07-21T12:34:50;10.73;;;7.50;;
25567;SDS011;13455;51.480;7.594;2022-07-21T12:37:19;10.23;;;7.63;;
25567;SDS011;13455;51.480;7.594;2022-07-21T12:39:59;11.20;;;7.60;;
25567;SDS011;13455;51.480;7.594;2022-07-21T12:42:33;9.50;;;7.45;;
25567;SDS011;13455;51.480;7.594;2022-07-21T12:45:13;11.60;;;7.68;;
25567;SDS011;13455;51.480;7.594;2022-07-21T12:47:40;10.65;;;7.47;;
25567;SDS011;13455;51.480;7.594;2022-07-21T12:50:07;9.93;;;7.23;;
25567;SDS011;13455;51.480;7.594;2022-07-21T12:52:38;10.65;;;7.18;;
25567;SDS011;13455;51.480;7.594;2022-07-21T12:55:04;8.95;;;6.68;;
25567;SDS011;13455;51.480;7.594;2022-07-21T12:57:33;8.32;;;6.40;;
25567;SDS011;13455;51.480;7.594;2022-07-21T13:00:00;7.68;;;6.00;;
25567;SDS011;13455;51.480;7.594;2022-07-21T13:02:27;8.93;;;6.03;;
25567;SDS011;13455;51.480;7.594;2022-07-21T13:04:55;10.23;;;6.77;;
25567;SDS011;13455;51.480;7.594;2022-07-21T13:07:20;8.63;;;7.07;;
25567;SDS011;13455;51.480;7.594;2022-07-21T13:09:46;10.38;;;7.40;;
25567;SDS011;13455;51.480;7.594;2022-07-21T13:12:12;8.60;;;6.78;;
25567;SDS011;13455;51.480;7.594;2022-07-21T13:14:38;9.57;;;7.07;;
25567;SDS011;13455;51.480;7.594;2022-07-21T13:17:07;9.40;;;7.05;;
25567;SDS011;13455;51.480;7.594;2022-07-21T13:19:34;8.15;;;7.35;;
25567;SDS011;13455;51.480;7.594;2022-07-21T13:22:03;9.98;;;6.50;;
25567;SDS011;13455;51.480;7.594;2022-07-21T13:24:30;8.20;;;6.78;;
25567;SDS011;13455;51.480;7.594;2022-07-21T13:26:56;8.32;;;7.30;;
25567;SDS011;13455;51.480;7.594;2022-07-21T13:29:22;8.70;;;6.85;;
25567;SDS011;13455;51.480;7.594;2022-07-21T13:31:48;9.57;;;7.17;;
25567;SDS011;13455;51.480;7.594;2022-07-21T13:34:13;8.70;;;7.47;;
25567;SDS011;13455;51.480;7.594;2022-07-21T13:36:41;8.88;;;7.38;;
25567;SDS011;13455;51.480;7.594;2022-07-21T13:39:10;8.50;;;7.13;;
25567;SDS011;13455;51.480;7.594;2022-07-21T13:41:36;9.07;;;7.38;;
25567;SDS011;13455;51.480;7.594;2022-07-21T13:44:03;10.10;;;6.35;;
25567;SDS011;13455;51.480;7.594;2022-07-21T13:46:29;8.75;;;6.03;;
25567;SDS011;13455;51.480;7.594;2022-07-21T13:48:55;6.93;;;6.05;;
25567;SDS011;13455;51.480;7.594;2022-07-21T13:51:21;7.60;;;6.15;;
25567;SDS011;13455;51.480;7.594;2022-07-21T13:53:48;7.60;;;5.78;;
25567;SDS011;13455;51.480;7.594;2022-07-21T13:56:14;6.60;;;5.60;;
25567;SDS011;13455;51.480;7.594;2022-07-21T13:58:42;6.80;;;5.80;;
25567;SDS011;13455;51.480;7.594;2022-07-21T14:01:08;7.22;;;5.40;;
25567;SDS011;13455;51.480;7.594;2022-07-21T14:03:35;6.78;;;5.85;;
25567;SDS011;13455;51.480;7.594;2022-07-21T14:06:01;7.28;;;5.90;;
25567;SDS011;13455;51.480;7.594;2022-07-21T14:08:27;8.00;;;6.07;;
25567;SDS011;13455;51.480;7.594;2022-07-21T14:10:53;6.00;;;5.40;;
25567;SDS011;13455;51.480;7.594;2022-07-21T14:13:19;6.97;;;5.07;;
25567;SDS011;13455;51.480;7.594;2022-07-21T14:15:46;6.47;;;4.80;;
25567;SDS011;13455;51.480;7.594;2022-07-21T14:18:12;4.63;;;3.72;;
25567;SDS011;13455;51.480;7.594;2022-07-21T14:20:38;7.63;;;3.58;;
25567;SDS011;13455;51.480;7.594;2022-07-21T14:23:04;5.40;;;3.90;;
25567;SDS011;13455;51.480;7.594;2022-07-21T14:25:31;5.10;;;3.67;;
25567;SDS011;13455;51.480;7.594;2022-07-21T14:27:57;4.30;;;3.17;;
25567;SDS011;13455;51.480;7.594;2022-07-21T14:30:25;4.20;;;3.07;;
25567;SDS011;13455;51.480;7.594;2022-07-21T14:32:51;5.47;;;2.92;;
25567;SDS011;13455;51.480;7.594;2022-07-21T14:35:18;3.00;;;2.40;;
25567;SDS011;13455;51.480;7.594;2022-07-21T14:37:45;3.25;;;2.50;;
25567;SDS011;13455;51.480;7.594;2022-07-21T14:40:12;3.47;;;2.70;;
25567;SDS011;13455;51.480;7.594;2022-07-21T14:42:39;3.10;;;2.80;;
25567;SDS011;13455;51.480;7.594;2022-07-21T14:45:05;3.20;;;2.80;;
25567;SDS011;13455;51.480;7.594;2022-07-21T14:47:31;4.35;;;2.80;;
25567;SDS011;13455;51.480;7.594;2022-07-21T14:49:58;3.47;;;3.05;;
25567;SDS011;13455;51.480;7.594;2022-07-21T14:52:24;4.40;;;3.10;;
25567;SDS011;13455;51.480;7.594;2022-07-21T14:54:50;3.70;;;3.15;;
25567;SDS011;13455;51.480;7.594;2022-07-21T14:57:16;4.10;;;3.50;;
25567;SDS011;13455;51.480;7.594;2022-07-21T14:59:42;4.57;;;3.80;;
25567;SDS011;13455;51.480;7.594;2022-07-21T15:02:08;4.90;;;4.40;;
25567;SDS011;13455;51.480;7.594;2022-07-21T15:04:34;4.90;;;4.40;;
25567;SDS011;13455;51.480;7.594;2022-07-21T15:07:00;5.27;;;4.00;;
25567;SDS011;13455;51.480;7.594;2022-07-21T15:09:26;4.67;;;3.70;;
25567;SDS011;13455;51.480;7.594;2022-07-21T15:11:52;6.15;;;3.80;;
25567;SDS011;13455;51.480;7.594;2022-07-21T15:14:18;5.78;;;4.20;;
25567;SDS011;13455;51.480;7.594;2022-07-21T15:16:44;5.47;;;4.57;;
25567;SDS011;13455;51.480;7.594;2022-07-21T15:19:10;6.03;;;5.18;;
25567;SDS011;13455;51.480;7.594;2022-07-21T15:21:36;6.50;;;5.53;;
25567;SDS011;13455;51.480;7.594;2022-07-21T15:24:02;6.72;;;5.70;;
25567;SDS011;13455;51.480;7.594;2022-07-21T15:26:28;7.70;;;6.07;;
25567;SDS011;13455;51.480;7.594;2022-07-21T15:28:54;7.78;;;6.38;;